Time;durP1;ratioP1;P1;durP2;ratioP2;P2;SDS_P1;SDS_P2;PMS_P1;PMS_P2;Temp;Humidity;BMP_temperature;BMP_pressure;BME280_temperature;BME280_humidity;BME280_pressure;Samples;Min_cycle;Max_cycle;Signal;HPM_P1;HPM_P2
2022/10/24 00:01:59;;;;;;;20.07;9.37;;;;;;;;;;5092178;28;20047;-57
2022/10/24 00:04:24;;;;;;;42.13;12.23;;;;;;;;;;5088192;28;20019;-57
2022/10/24 00:06:50;;;;;;;181.80;13.60;;;;;;;;;;5108767;27;20575;-57
2022/10/24 00:09:17;;;;;;;125.07;12.10;;;;;;;;;;5091434;28;20091;-57
2022/10/24 00:11:42;;;;;;;319.35;15.10;;;;;;;;;;5090767;28;20047;-57
2022/10/24 00:14:07;;;;;;;388.75;17.90;;;;;;;;;;5093339;28;20020;-57
2022/10/24 00:16:34;;;;;;;233.73;12.32;;;;;;;;;;5090235;28;20099;-57
2022/10/24 00:18:59;;;;;;;18.27;8.75;;;;;;;;;;5093079;28;20046;-57
2022/10/24 00:21:25;;;;;;;19.55;8.73;;;;;;;;;;5077438;28;20463;-57
2022/10/24 00:23:50;;;;;;;20.25;8.82;;;;;;;;;;5086370;28;20035;-57
2022/10/24 00:26:16;;;;;;;14.88;8.57;;;;;;;;;;5093635;28;20032;-57
2022/10/24 00:28:41;;;;;;;20.13;8.00;;;;;;;;;;5095942;28;20089;-57
2022/10/24 00:31:07;;;;;;;17.13;8.13;;;;;;;;;;5096721;28;20026;-57
2022/10/24 00:33:32;;;;;;;18.75;8.27;;;;;;;;;;5094784;28;20015;-57
2022/10/24 00:35:57;;;;;;;17.90;8.02;;;;;;;;;;5092977;28;20062;-57
2022/10/24 00:38:23;;;;;;;19.35;7.97;;;;;;;;;;5085843;28;20054;-57
2022/10/24 00:40:48;;;;;;;22.63;8.23;;;;;;;;;;5089829;28;20120;-57
2022/10/24 00:43:17;;;;;;;15.13;7.65;;;;;;;;;;5099925;28;20138;-57
2022/10/24 00:45:45;;;;;;;16.55;7.57;;;;;;;;;;5091578;28;20028;-57
2022/10/24 00:48:11;;;;;;;24.65;7.88;;;;;;;;;;5092567;28;20015;-57
2022/10/24 00:50:37;;;;;;;304.63;13.25;;;;;;;;;;5088324;28;20039;-57
2022/10/24 00:53:02;;;;;;;240.25;12.35;;;;;;;;;;5089813;28;20513;-57
2022/10/24 00:55:28;;;;;;;347.85;13.48;;;;;;;;;;5094673;28;20016;-57
2022/10/24 00:57:53;;;;;;;426.65;15.70;;;;;;;;;;5090836;28;20055;-57
2022/10/24 01:00:20;;;;;;;349.00;14.00;;;;;;;;;;5095957;28;20393;-58
2022/10/24 01:02:45;;;;;;;413.90;15.80;;;;;;;;;;5086777;28;20512;-58
2022/10/24 01:05:10;;;;;;;29.65;10.25;;;;;;;;;;5090885;28;20067;-58
2022/10/24 01:07:54;;;;;;;24.75;10.77;;;;;;;;;;5097981;28;20463;-58
2022/10/24 01:10:36;;;;;;;21.38;10.52;;;;;;;;;;5082409;28;20358;-58
2022/10/24 01:13:02;;;;;;;21.90;10.60;;;;;;;;;;5093131;28;20027;-56
2022/10/24 01:15:30;;;;;;;25.92;10.63;;;;;;;;;;5094516;28;20231;-58
2022/10/24 01:18:05;;;;;;;18.98;9.82;;;;;;;;;;5085134;28;20027;-58
2022/10/24 01:20:49;;;;;;;28.27;10.93;;;;;;;;;;5092491;28;20054;-58
2022/10/24 01:23:26;;;;;;;23.27;10.75;;;;;;;;;;5093565;28;20039;-57
2022/10/24 01:26:10;;;;;;;23.75;10.45;;;;;;;;;;5090220;28;20099;-57
2022/10/24 01:28:54;;;;;;;23.98;10.38;;;;;;;;;;5089845;28;20017;-57
2022/10/24 01:31:29;;;;;;;20.65;10.73;;;;;;;;;;5088306;28;20019;-56
2022/10/24 01:33:55;;;;;;;25.63;11.07;;;;;;;;;;5082387;28;20024;-59
2022/10/24 01:36:42;;;;;;;21.88;10.68;;;;;;;;;;5091621;28;20047;-57
2022/10/24 01:39:11;;;;;;;21.58;10.50;;;;;;;;;;5091151;28;20525;-57
2022/10/24 01:41:37;;;;;;;27.67;11.00;;;;;;;;;;5092058;28;20028;-59
2022/10/24 01:44:06;;;;;;;16.27;9.70;;;;;;;;;;5094010;28;20054;-58
2022/10/24 01:46:33;;;;;;;25.95;11.20;;;;;;;;;;5092516;28;20051;-58
2022/10/24 01:49:05;;;;;;;24.10;9.88;;;;;;;;;;5087146;28;20035;-58
2022/10/24 01:51:31;;;;;;;22.83;9.48;;;;;;;;;;5098008;28;20092;-58
2022/10/24 01:53:56;;;;;;;178.40;13.85;;;;;;;;;;5091820;28;20020;-57
2022/10/24 01:56:23;;;;;;;23.98;10.32;;;;;;;;;;5092829;28;20031;-59
2022/10/24 01:58:48;;;;;;;22.08;10.25;;;;;;;;;;5083886;28;20112;-56
2022/10/24 02:01:15;;;;;;;57.03;11.30;;;;;;;;;;5092630;28;20098;-56
2022/10/24 02:03:47;;;;;;;192.52;13.45;;;;;;;;;;5080574;28;20029;-56
2022/10/24 02:06:32;;;;;;;302.02;15.60;;;;;;;;;;5087682;28;20044;-57
2022/10/24 02:08:58;;;;;;;399.92;17.15;;;;;;;;;;5086232;28;20335;-56
2022/10/24 02:11:24;;;;;;;379.92;13.23;;;;;;;;;;5091455;28;20064;-57
2022/10/24 02:13:51;;;;;;;128.75;9.77;;;;;;;;;;5085869;28;20372;-56
2022/10/24 02:16:17;;;;;;;52.35;10.20;;;;;;;;;;5089211;28;20436;-56
2022/10/24 02:18:42;;;;;;;13.52;7.70;;;;;;;;;;5074366;28;20044;-57
2022/10/24 02:21:07;;;;;;;15.38;8.27;;;;;;;;;;5088365;28;20477;-57
2022/10/24 02:23:44;;;;;;;14.68;7.18;;;;;;;;;;5090368;28;20043;-56
2022/10/24 02:26:11;;;;;;;12.05;7.43;;;;;;;;;;5093449;28;20084;-56
2022/10/24 02:28:38;;;;;;;15.98;8.15;;;;;;;;;;5090041;28;20043;-57
2022/10/24 02:31:05;;;;;;;18.17;7.53;;;;;;;;;;5086574;28;20043;-56
2022/10/24 02:33:31;;;;;;;21.02;8.20;;;;;;;;;;5083889;28;20300;-57
2022/10/24 02:35:56;;;;;;;20.00;8.25;;;;;;;;;;5081609;28;20036;-56
2022/10/24 02:38:23;;;;;;;20.40;8.57;;;;;;;;;;5073366;28;20478;-57
2022/10/24 02:40:49;;;;;;;17.70;8.45;;;;;;;;;;5088221;28;20028;-57
2022/10/24 02:43:14;;;;;;;17.08;7.57;;;;;;;;;;5085183;28;20386;-57
2022/10/24 02:45:39;;;;;;;21.85;7.80;;;;;;;;;;5086956;28;20016;-57
2022/10/24 02:48:05;;;;;;;17.67;7.88;;;;;;;;;;5093615;28;20031;-57
2022/10/24 02:50:31;;;;;;;20.58;8.10;;;;;;;;;;5086256;28;20439;-57
2022/10/24 02:52:56;;;;;;;19.85;7.45;;;;;;;;;;5097028;28;20024;-57
2022/10/24 02:55:21;;;;;;;17.13;8.23;;;;;;;;;;5090126;28;20023;-57
2022/10/24 02:57:47;;;;;;;16.02;7.60;;;;;;;;;;5091356;28;20028;-57
2022/10/24 03:00:12;;;;;;;27.10;7.78;;;;;;;;;;5088655;28;20149;-57
2022/10/24 03:02:37;;;;;;;24.33;9.88;;;;;;;;;;5074642;28;20036;-57
2022/10/24 03:05:03;;;;;;;21.73;9.63;;;;;;;;;;5084402;28;20016;-57
2022/10/24 03:07:28;;;;;;;21.00;8.93;;;;;;;;;;5090144;28;20024;-57
2022/10/24 03:09:53;;;;;;;20.58;9.07;;;;;;;;;;5090421;28;20099;-56
2022/10/24 03:12:18;;;;;;;21.42;8.45;;;;;;;;;;5095284;28;20106;-57
2022/10/24 03:14:44;;;;;;;26.65;8.98;;;;;;;;;;5086383;28;20386;-57
2022/10/24 03:17:09;;;;;;;27.42;9.35;;;;;;;;;;5074679;28;20108;-57
2022/10/24 03:19:34;;;;;;;25.75;8.90;;;;;;;;;;5089400;28;20031;-57
2022/10/24 03:21:59;;;;;;;28.73;9.80;;;;;;;;;;5084260;28;20028;-57
2022/10/24 03:24:25;;;;;;;20.17;8.98;;;;;;;;;;5076925;28;20103;-57
2022/10/24 03:26:51;;;;;;;20.33;8.93;;;;;;;;;;5088494;28;20023;-57
2022/10/24 03:29:16;;;;;;;16.65;7.47;;;;;;;;;;5084701;28;20059;-57
2022/10/24 03:31:42;;;;;;;28.50;7.63;;;;;;;;;;5090555;28;20166;-56
2022/10/24 03:34:09;;;;;;;25.67;8.13;;;;;;;;;;5083324;28;20032;-57
2022/10/24 03:36:35;;;;;;;25.08;8.20;;;;;;;;;;5084124;28;20016;-57
2022/10/24 03:39:00;;;;;;;24.25;8.38;;;;;;;;;;5084480;28;20016;-57
2022/10/24 03:41:25;;;;;;;18.58;8.02;;;;;;;;;;5091451;28;20020;-57
2022/10/24 03:43:50;;;;;;;17.95;5.95;;;;;;;;;;5093783;28;20027;-57
2022/10/24 03:46:16;;;;;;;12.90;5.53;;;;;;;;;;5083726;28;20027;-57
2022/10/24 03:48:41;;;;;;;17.63;5.82;;;;;;;;;;5084218;28;20351;-57
2022/10/24 03:51:06;;;;;;;14.52;5.60;;;;;;;;;;5090499;28;20027;-57
2022/10/24 03:53:31;;;;;;;13.68;5.25;;;;;;;;;;5092122;28;20030;-57
2022/10/24 03:55:57;;;;;;;13.63;5.20;;;;;;;;;;5090169;28;20028;-57
2022/10/24 03:58:22;;;;;;;13.23;4.90;;;;;;;;;;5090751;28;20023;-57
2022/10/24 04:00:47;;;;;;;14.43;4.85;;;;;;;;;;5088361;28;20016;-57
2022/10/24 04:03:13;;;;;;;14.68;5.30;;;;;;;;;;5085701;28;20028;-57
2022/10/24 04:05:38;;;;;;;12.02;4.80;;;;;;;;;;5084737;28;20124;-57
2022/10/24 04:08:04;;;;;;;16.17;5.13;;;;;;;;;;5092393;28;20051;-57
2022/10/24 04:10:29;;;;;;;10.90;4.95;;;;;;;;;;5090394;28;20351;-57
2022/10/24 04:12:54;;;;;;;20.92;5.45;;;;;;;;;;5091433;28;20032;-57
2022/10/24 04:15:20;;;;;;;12.02;4.38;;;;;;;;;;5084810;28;20039;-57
2022/10/24 04:17:45;;;;;;;15.65;4.75;;;;;;;;;;5089568;28;20028;-57
2022/10/24 04:20:10;;;;;;;11.90;4.82;;;;;;;;;;5088139;28;20453;-57
2022/10/24 04:22:35;;;;;;;9.95;3.63;;;;;;;;;;5087633;28;20032;-57
2022/10/24 04:25:00;;;;;;;14.10;5.35;;;;;;;;;;5084159;28;20024;-57
2022/10/24 04:27:26;;;;;;;13.75;4.03;;;;;;;;;;5089028;28;20117;-57
2022/10/24 04:29:51;;;;;;;13.15;4.25;;;;;;;;;;5078636;28;20036;-57
2022/10/24 04:32:16;;;;;;;13.90;4.45;;;;;;;;;;5076614;28;20021;-57
2022/10/24 04:34:41;;;;;;;11.75;4.32;;;;;;;;;;5083392;28;20445;-57
2022/10/24 04:37:07;;;;;;;12.20;4.70;;;;;;;;;;5089922;28;20467;-57
2022/10/24 04:39:32;;;;;;;15.18;4.28;;;;;;;;;;5091370;28;20514;-57
2022/10/24 04:41:57;;;;;;;17.55;4.70;;;;;;;;;;5089254;28;20016;-58
2022/10/24 04:44:22;;;;;;;13.48;4.43;;;;;;;;;;5088647;28;20418;-57
2022/10/24 04:46:48;;;;;;;12.02;4.13;;;;;;;;;;5087262;28;20024;-57
2022/10/24 04:49:13;;;;;;;10.77;4.35;;;;;;;;;;5092678;28;20030;-57
2022/10/24 04:51:38;;;;;;;13.80;4.72;;;;;;;;;;5091591;28;20034;-57
2022/10/24 04:54:05;;;;;;;11.05;4.50;;;;;;;;;;5100401;28;20111;-57
2022/10/24 04:56:30;;;;;;;10.63;4.35;;;;;;;;;;5092918;28;20024;-58
2022/10/24 04:58:55;;;;;;;12.07;4.88;;;;;;;;;;5086731;28;20013;-59
2022/10/24 05:01:20;;;;;;;13.73;4.70;;;;;;;;;;5089128;28;20053;-59
2022/10/24 05:03:45;;;;;;;16.30;5.13;;;;;;;;;;5091635;28;20040;-58
2022/10/24 05:06:11;;;;;;;10.80;4.40;;;;;;;;;;5090560;28;20050;-59
2022/10/24 05:08:36;;;;;;;22.58;4.80;;;;;;;;;;5088716;28;20325;-56
2022/10/24 05:11:01;;;;;;;14.68;4.63;;;;;;;;;;5088135;28;20023;-59
2022/10/24 05:13:27;;;;;;;11.30;4.18;;;;;;;;;;5095474;28;20147;-58
2022/10/24 05:15:52;;;;;;;17.73;4.40;;;;;;;;;;5088549;28;20024;-58
2022/10/24 05:18:17;;;;;;;26.05;4.85;;;;;;;;;;5084777;28;20021;-58
2022/10/24 05:20:42;;;;;;;14.43;4.50;;;;;;;;;;5094402;28;20028;-59
2022/10/24 05:23:08;;;;;;;24.42;4.88;;;;;;;;;;5087905;28;20033;-59
2022/10/24 05:25:33;;;;;;;12.95;4.45;;;;;;;;;;5089261;27;20134;-59
2022/10/24 05:27:58;;;;;;;16.75;4.30;;;;;;;;;;5095155;28;20119;-58
2022/10/24 05:30:23;;;;;;;15.77;4.47;;;;;;;;;;5089697;28;20423;-58
2022/10/24 05:32:49;;;;;;;17.20;4.57;;;;;;;;;;5082732;28;20862;-58
2022/10/24 05:35:14;;;;;;;12.75;4.10;;;;;;;;;;5095343;28;20605;-57
2022/10/24 05:37:39;;;;;;;19.45;4.47;;;;;;;;;;5085664;28;20028;-58
2022/10/24 05:40:06;;;;;;;15.38;4.40;;;;;;;;;;5088265;28;20110;-58
2022/10/24 05:42:31;;;;;;;14.77;4.22;;;;;;;;;;5092239;28;20031;-58
2022/10/24 05:44:56;;;;;;;15.57;4.25;;;;;;;;;;5088805;28;20458;-57
2022/10/24 05:47:21;;;;;;;14.05;4.30;;;;;;;;;;5092175;28;20057;-58
2022/10/24 05:49:47;;;;;;;13.60;4.50;;;;;;;;;;5092103;28;20655;-58
2022/10/24 05:52:12;;;;;;;15.80;4.28;;;;;;;;;;5090110;28;20023;-58
2022/10/24 05:54:37;;;;;;;11.85;4.43;;;;;;;;;;5089537;28;20027;-58
2022/10/24 05:57:02;;;;;;;18.70;4.20;;;;;;;;;;5082445;28;20020;-58
2022/10/24 05:59:27;;;;;;;19.88;4.47;;;;;;;;;;5090695;28;20027;-58
2022/10/24 06:01:53;;;;;;;19.60;4.03;;;;;;;;;;5091925;28;20109;-57
2022/10/24 06:04:18;;;;;;;16.05;4.50;;;;;;;;;;5089347;28;20032;-58
2022/10/24 06:06:43;;;;;;;8.43;3.60;;;;;;;;;;5086786;28;20040;-58
2022/10/24 06:09:09;;;;;;;12.10;4.03;;;;;;;;;;5089326;28;20100;-58
2022/10/24 06:11:34;;;;;;;15.48;4.30;;;;;;;;;;5090602;28;20024;-58
2022/10/24 06:13:59;;;;;;;15.27;3.90;;;;;;;;;;5092439;28;20017;-58
2022/10/24 06:16:26;;;;;;;14.02;4.05;;;;;;;;;;5090710;28;20016;-57
2022/10/24 06:18:51;;;;;;;18.42;4.03;;;;;;;;;;5089993;28;20039;-58
2022/10/24 06:21:17;;;;;;;13.40;3.88;;;;;;;;;;5081316;28;20114;-58
2022/10/24 06:23:42;;;;;;;9.70;3.80;;;;;;;;;;5083851;28;20198;-57
2022/10/24 06:26:08;;;;;;;17.50;3.90;;;;;;;;;;5092148;28;20525;-58
2022/10/24 06:28:34;;;;;;;10.98;3.67;;;;;;;;;;5086844;28;20029;-58
2022/10/24 06:31:02;;;;;;;9.48;3.40;;;;;;;;;;5089111;28;20016;-58
2022/10/24 06:33:27;;;;;;;12.57;3.83;;;;;;;;;;5082957;28;20042;-58
2022/10/24 06:35:52;;;;;;;12.35;3.50;;;;;;;;;;5095373;28;20016;-58
2022/10/24 06:38:17;;;;;;;9.75;3.60;;;;;;;;;;5090904;28;20020;-58
2022/10/24 06:40:43;;;;;;;9.80;3.33;;;;;;;;;;5090347;28;20281;-57
2022/10/24 06:43:08;;;;;;;12.65;3.83;;;;;;;;;;5093374;28;20115;-58
2022/10/24 06:45:33;;;;;;;11.82;3.40;;;;;;;;;;5087739;28;20032;-58
2022/10/24 06:47:59;;;;;;;17.80;3.30;;;;;;;;;;5086999;28;20028;-58
2022/10/24 06:50:24;;;;;;;8.10;3.10;;;;;;;;;;5090597;28;20019;-57
2022/10/24 06:52:49;;;;;;;9.57;3.20;;;;;;;;;;5086498;28;20387;-56
2022/10/24 06:55:14;;;;;;;12.18;3.47;;;;;;;;;;5093543;28;20030;-59
2022/10/24 06:57:40;;;;;;;11.23;3.03;;;;;;;;;;5087064;28;20019;-59
2022/10/24 07:00:05;;;;;;;13.40;3.63;;;;;;;;;;5083780;28;20415;-59
2022/10/24 07:02:31;;;;;;;13.00;3.15;;;;;;;;;;5084575;28;20038;-58
2022/10/24 07:04:56;;;;;;;14.68;3.20;;;;;;;;;;5084195;28;20528;-58
2022/10/24 07:07:22;;;;;;;11.27;3.25;;;;;;;;;;5084734;28;20506;-58
2022/10/24 07:09:51;;;;;;;14.30;3.00;;;;;;;;;;5091710;28;20397;-58
2022/10/24 07:12:16;;;;;;;14.05;3.25;;;;;;;;;;5079947;28;20030;-58
2022/10/24 07:14:41;;;;;;;10.30;2.90;;;;;;;;;;5089644;28;20020;-59
2022/10/24 07:17:07;;;;;;;11.52;3.00;;;;;;;;;;5092177;28;20028;-58
2022/10/24 07:19:32;;;;;;;10.25;2.85;;;;;;;;;;5085826;28;20040;-58
2022/10/24 07:21:57;;;;;;;10.15;2.65;;;;;;;;;;5082606;28;20592;-58
2022/10/24 07:24:23;;;;;;;10.48;2.92;;;;;;;;;;5108858;27;20027;-58
2022/10/24 07:26:48;;;;;;;11.20;3.28;;;;;;;;;;5094308;28;20418;-58
2022/10/24 07:29:13;;;;;;;16.85;3.60;;;;;;;;;;5094398;28;20058;-58
2022/10/24 07:31:38;;;;;;;14.15;2.80;;;;;;;;;;5087402;28;20089;-57
2022/10/24 07:34:04;;;;;;;12.27;2.90;;;;;;;;;;5091508;28;20028;-59
2022/10/24 07:36:29;;;;;;;6.40;2.53;;;;;;;;;;5091086;28;20015;-58
2022/10/24 07:38:55;;;;;;;4.65;2.22;;;;;;;;;;5089309;28;20029;-58
2022/10/24 07:41:20;;;;;;;9.95;2.50;;;;;;;;;;5087857;28;20436;-58
2022/10/24 07:43:46;;;;;;;8.45;2.90;;;;;;;;;;5082942;28;20498;-58
2022/10/24 07:46:12;;;;;;;9.55;2.60;;;;;;;;;;5095252;28;20020;-58
2022/10/24 07:48:37;;;;;;;10.50;2.22;;;;;;;;;;5085673;28;20386;-58
2022/10/24 07:51:06;;;;;;;7.05;2.13;;;;;;;;;;5090373;28;20020;-58
2022/10/24 07:53:31;;;;;;;11.75;2.92;;;;;;;;;;5090790;28;20259;-58
2022/10/24 07:55:57;;;;;;;6.97;2.47;;;;;;;;;;5090474;28;20028;-58
2022/10/24 07:58:22;;;;;;;8.27;2.28;;;;;;;;;;5089712;28;20258;-58
2022/10/24 08:00:47;;;;;;;12.55;2.85;;;;;;;;;;5086885;28;20378;-58
2022/10/24 08:03:13;;;;;;;7.70;2.05;;;;;;;;;;5096309;28;20070;-58
2022/10/24 08:05:38;;;;;;;11.18;2.20;;;;;;;;;;5097852;28;20040;-58
2022/10/24 08:08:04;;;;;;;10.07;2.20;;;;;;;;;;5093442;28;20020;-58
2022/10/24 08:10:29;;;;;;;7.05;2.13;;;;;;;;;;5082751;28;20311;-58
2022/10/24 08:12:54;;;;;;;8.15;2.17;;;;;;;;;;5089832;28;20020;-58
2022/10/24 08:15:21;;;;;;;6.53;2.30;;;;;;;;;;5088010;28;20023;-58
2022/10/24 08:17:47;;;;;;;9.38;2.97;;;;;;;;;;5088706;28;20036;-58
2022/10/24 08:20:12;;;;;;;5.72;2.05;;;;;;;;;;5090570;28;20015;-58
2022/10/24 08:22:37;;;;;;;6.63;2.20;;;;;;;;;;5090102;28;20036;-57
2022/10/24 08:25:04;;;;;;;14.15;2.22;;;;;;;;;;5088578;28;20009;-58
2022/10/24 08:27:30;;;;;;;7.65;2.30;;;;;;;;;;5093155;28;20031;-57
2022/10/24 08:29:55;;;;;;;6.10;2.15;;;;;;;;;;5085976;28;20016;-58
2022/10/24 08:32:20;;;;;;;5.70;2.05;;;;;;;;;;5090118;28;20035;-56
2022/10/24 08:34:45;;;;;;;6.93;2.13;;;;;;;;;;5094062;28;20024;-59
2022/10/24 08:37:11;;;;;;;10.05;2.35;;;;;;;;;;5095014;28;20399;-57
2022/10/24 08:39:36;;;;;;;8.15;2.15;;;;;;;;;;5102146;28;20341;-57
2022/10/24 08:42:03;;;;;;;9.27;2.55;;;;;;;;;;5095031;28;20032;-57
2022/10/24 08:44:29;;;;;;;7.38;2.13;;;;;;;;;;5108215;27;20051;-57
2022/10/24 08:47:13;;;;;;;7.45;2.17;;;;;;;;;;5091413;28;20472;-57
2022/10/24 08:49:42;;;;;;;6.95;2.30;;;;;;;;;;5076370;28;20023;-57
2022/10/24 08:52:20;;;;;;;12.45;2.75;;;;;;;;;;5090912;28;20031;-57
2022/10/24 08:54:45;;;;;;;9.73;2.30;;;;;;;;;;5090215;28;20020;-56
2022/10/24 08:57:29;;;;;;;9.05;2.50;;;;;;;;;;5091610;28;20020;-57
2022/10/24 08:59:56;;;;;;;6.95;2.30;;;;;;;;;;5085969;28;20024;-56
2022/10/24 09:02:25;;;;;;;8.93;2.25;;;;;;;;;;5093435;28;20536;-56
2022/10/24 09:04:55;;;;;;;6.50;2.00;;;;;;;;;;5089832;28;20035;-56
2022/10/24 09:07:20;;;;;;;8.68;2.50;;;;;;;;;;5091770;27;20391;-56
2022/10/24 09:09:46;;;;;;;6.30;2.10;;;;;;;;;;5083554;28;20032;-56
2022/10/24 09:12:12;;;;;;;5.85;2.10;;;;;;;;;;5087427;28;20011;-56
2022/10/24 09:14:38;;;;;;;8.00;2.70;;;;;;;;;;5092839;28;20050;-56
2022/10/24 09:17:11;;;;;;;9.73;2.30;;;;;;;;;;5089055;28;20101;-57
2022/10/24 09:19:36;;;;;;;13.95;2.90;;;;;;;;;;5082206;28;20032;-56
2022/10/24 09:22:02;;;;;;;6.57;2.25;;;;;;;;;;5085969;28;20458;-56
2022/10/24 09:24:27;;;;;;;8.20;2.60;;;;;;;;;;5086984;28;20036;-57
2022/10/24 09:26:52;;;;;;;7.45;2.60;;;;;;;;;;5088627;28;20035;-56
2022/10/24 09:29:17;;;;;;;6.50;2.13;;;;;;;;;;5092606;28;20042;-57
2022/10/24 09:31:43;;;;;;;14.00;2.72;;;;;;;;;;5078722;28;20017;-56
2022/10/24 09:34:08;;;;;;;5.60;1.80;;;;;;;;;;5087151;28;20059;-56
2022/10/24 09:36:33;;;;;;;5.82;2.00;;;;;;;;;;5087039;28;20083;-57
2022/10/24 09:39:08;;;;;;;7.53;2.00;;;;;;;;;;5092698;28;20445;-56
2022/10/24 09:41:33;;;;;;;8.40;1.90;;;;;;;;;;5090859;28;20282;-57
2022/10/24 09:43:59;;;;;;;10.10;1.92;;;;;;;;;;5093169;28;20493;-56
2022/10/24 09:46:24;;;;;;;12.32;2.30;;;;;;;;;;5087659;28;20599;-57
2022/10/24 09:48:54;;;;;;;6.63;1.95;;;;;;;;;;5087318;28;20119;-57
2022/10/24 09:51:20;;;;;;;8.52;2.28;;;;;;;;;;5081159;28;20107;-56
2022/10/24 09:53:58;;;;;;;7.25;1.90;;;;;;;;;;5074109;28;20105;-56
2022/10/24 09:56:23;;;;;;;7.35;2.30;;;;;;;;;;5079701;28;20107;-57
2022/10/24 09:58:48;;;;;;;10.52;2.30;;;;;;;;;;5083327;28;20099;-56
2022/10/24 10:01:14;;;;;;;8.40;2.58;;;;;;;;;;5092775;28;20031;-56
2022/10/24 10:03:39;;;;;;;7.75;1.83;;;;;;;;;;5087482;28;20032;-56
2022/10/24 10:06:24;;;;;;;8.50;2.20;;;;;;;;;;5082530;28;20052;-55
2022/10/24 10:08:50;;;;;;;6.45;2.03;;;;;;;;;;5080480;28;20107;-56
2022/10/24 10:11:16;;;;;;;7.57;1.90;;;;;;;;;;5083533;28;20080;-55
2022/10/24 10:13:48;;;;;;;12.43;2.42;;;;;;;;;;5091589;28;20369;-56
2022/10/24 10:16:33;;;;;;;7.22;2.10;;;;;;;;;;5079260;28;20054;-56
2022/10/24 10:19:14;;;;;;;7.72;1.83;;;;;;;;;;5088746;28;20019;-57
2022/10/24 10:22:00;;;;;;;6.80;1.60;;;;;;;;;;5084877;28;20019;-56
2022/10/24 10:24:36;;;;;;;8.32;1.90;;;;;;;;;;5084376;28;20553;-56
2022/10/24 10:27:01;;;;;;;5.90;1.80;;;;;;;;;;5090247;28;20111;-57
2022/10/24 10:29:27;;;;;;;11.43;2.85;;;;;;;;;;5087944;28;20115;-57
2022/10/24 10:32:05;;;;;;;9.63;2.25;;;;;;;;;;5088507;28;20382;-56
2022/10/24 10:34:31;;;;;;;10.57;2.00;;;;;;;;;;5087034;28;20363;-56
2022/10/24 10:37:15;;;;;;;8.40;2.20;;;;;;;;;;5093502;28;20013;-56
2022/10/24 10:40:01;;;;;;;9.80;2.60;;;;;;;;;;5075500;28;20192;-55
2022/10/24 10:42:26;;;;;;;8.23;2.13;;;;;;;;;;5054141;28;20032;-55
2022/10/24 10:44:54;;;;;;;10.48;2.08;;;;;;;;;;5086286;28;20046;-55
2022/10/24 10:47:43;;;;;;;6.50;1.90;;;;;;;;;;5091148;28;20016;-56
2022/10/24 10:50:24;;;;;;;4.55;1.50;;;;;;;;;;5073656;28;20036;-55
2022/10/24 10:52:49;;;;;;;7.55;1.80;;;;;;;;;;5093390;28;20054;-56
2022/10/24 10:55:20;;;;;;;9.15;2.13;;;;;;;;;;5085806;28;20109;-56
2022/10/24 10:58:21;;;;;;;9.35;1.90;;;;;;;;;;5089216;28;20429;-55
2022/10/24 11:00:50;;;;;;;13.38;2.30;;;;;;;;;;5025234;28;20029;-56
2022/10/24 11:03:36;;;;;;;7.50;2.03;;;;;;;;;;5057541;28;20592;-55
2022/10/24 11:06:13;;;;;;;9.20;2.00;;;;;;;;;;5083662;28;20260;-55
2022/10/24 11:08:39;;;;;;;9.05;2.22;;;;;;;;;;5089601;28;20196;-56
2022/10/24 11:11:10;;;;;;;9.30;2.03;;;;;;;;;;5087746;28;20066;-55
2022/10/24 11:13:41;;;;;;;5.97;1.70;;;;;;;;;;5084167;28;20032;-55
2022/10/24 11:16:07;;;;;;;9.10;2.08;;;;;;;;;;5080351;28;20454;-55
2022/10/24 11:18:36;;;;;;;7.22;1.90;;;;;;;;;;5076340;28;20580;-56
2022/10/24 11:21:05;;;;;;;8.80;2.08;;;;;;;;;;5090376;28;20706;-56
2022/10/24 11:23:31;;;;;;;9.98;2.25;;;;;;;;;;5078648;28;20028;-55
2022/10/24 11:26:01;;;;;;;12.48;2.20;;;;;;;;;;5085207;28;20042;-56
2022/10/24 11:28:26;;;;;;;12.15;2.20;;;;;;;;;;5078414;28;20042;-56
2022/10/24 11:30:55;;;;;;;7.97;2.38;;;;;;;;;;5089707;28;20024;-56
2022/10/24 11:33:28;;;;;;;6.28;2.10;;;;;;;;;;5090492;28;20021;-56
2022/10/24 11:36:20;;;;;;;9.57;2.15;;;;;;;;;;5088999;28;20046;-56
2022/10/24 11:38:47;;;;;;;8.65;2.10;;;;;;;;;;5061857;28;20442;-56
2022/10/24 11:41:35;;;;;;;8.35;2.45;;;;;;;;;;5086549;28;20039;-56
2022/10/24 11:44:04;;;;;;;8.00;1.90;;;;;;;;;;5067365;28;20040;-56
2022/10/24 11:46:31;;;;;;;7.22;2.17;;;;;;;;;;5079780;28;20418;-56
2022/10/24 11:49:12;;;;;;;8.00;2.10;;;;;;;;;;5079911;28;20020;-56
2022/10/24 11:51:37;;;;;;;7.88;2.10;;;;;;;;;;5080759;28;20043;-56
2022/10/24 11:54:14;;;;;;;10.90;2.00;;;;;;;;;;5083004;28;20066;-56
2022/10/24 11:56:41;;;;;;;8.02;2.00;;;;;;;;;;5087369;28;20508;-54
2022/10/24 11:59:10;;;;;;;8.80;1.80;;;;;;;;;;5081889;28;20013;-56
2022/10/24 12:01:53;;;;;;;8.68;2.00;;;;;;;;;;5079854;28;20028;-55
2022/10/24 12:04:25;;;;;;;8.32;2.40;;;;;;;;;;5080821;28;20089;-56
2022/10/24 12:07:09;;;;;;;7.15;2.00;;;;;;;;;;5083338;28;20504;-56
2022/10/24 12:09:53;;;;;;;8.85;2.60;;;;;;;;;;5078293;28;20470;-56
2022/10/24 12:12:21;;;;;;;11.40;2.05;;;;;;;;;;5082453;28;20112;-55
2022/10/24 12:14:58;;;;;;;7.80;1.75;;;;;;;;;;5076373;28;20024;-55
2022/10/24 12:17:27;;;;;;;10.75;2.10;;;;;;;;;;5080895;28;20024;-58
2022/10/24 12:19:53;;;;;;;7.45;2.00;;;;;;;;;;5078052;28;20702;-57
2022/10/24 12:22:25;;;;;;;7.50;1.85;;;;;;;;;;5076066;28;20325;-56
2022/10/24 12:25:00;;;;;;;12.00;2.10;;;;;;;;;;5070124;28;20533;-56
2022/10/24 12:27:46;;;;;;;6.38;1.73;;;;;;;;;;5083906;28;20402;-57
2022/10/24 12:30:11;;;;;;;10.35;2.10;;;;;;;;;;5082658;28;20054;-57
2022/10/24 12:32:39;;;;;;;11.27;2.08;;;;;;;;;;5072948;28;20028;-57
2022/10/24 12:35:24;;;;;;;7.18;1.90;;;;;;;;;;5083604;28;20410;-57
2022/10/24 12:37:49;;;;;;;8.70;2.45;;;;;;;;;;5077440;28;20017;-57
2022/10/24 12:40:38;;;;;;;7.88;2.20;;;;;;;;;;5074061;28;20050;-57
2022/10/24 12:43:03;;;;;;;7.32;1.98;;;;;;;;;;5081646;28;20059;-58
2022/10/24 12:45:29;;;;;;;8.25;2.10;;;;;;;;;;5082110;28;20497;-56
2022/10/24 12:47:54;;;;;;;8.95;1.90;;;;;;;;;;5084691;28;20130;-55
2022/10/24 12:50:21;;;;;;;10.18;2.10;;;;;;;;;;5090182;28;20024;-55
2022/10/24 12:52:47;;;;;;;7.65;1.90;;;;;;;;;;5082998;28;20028;-55
2022/10/24 12:55:28;;;;;;;8.88;2.15;;;;;;;;;;5081702;28;20026;-55
2022/10/24 12:57:53;;;;;;;8.55;2.25;;;;;;;;;;5082104;28;20012;-54
2022/10/24 13:00:24;;;;;;;8.68;1.88;;;;;;;;;;5104633;27;20031;-55
2022/10/24 13:02:53;;;;;;;7.05;2.35;;;;;;;;;;5082037;28;20123;-55
2022/10/24 13:05:39;;;;;;;9.57;4.22;;;;;;;;;;5075477;28;20021;-55
2022/10/24 13:08:04;;;;;;;10.70;2.50;;;;;;;;;;5057101;28;20032;-56
2022/10/24 13:10:50;;;;;;;8.98;2.30;;;;;;;;;;5076292;28;20100;-55
2022/10/24 13:13:15;;;;;;;9.73;1.80;;;;;;;;;;5075054;28;20035;-54
2022/10/24 13:15:57;;;;;;;14.00;5.18;;;;;;;;;;5067672;28;20016;-56
2022/10/24 13:18:22;;;;;;;15.70;5.47;;;;;;;;;;5078219;28;20028;-55
2022/10/24 13:20:49;;;;;;;10.43;2.25;;;;;;;;;;5073402;28;20023;-57
2022/10/24 13:23:20;;;;;;;7.18;2.30;;;;;;;;;;5079363;28;20035;-57
2022/10/24 13:25:45;;;;;;;12.20;3.22;;;;;;;;;;5079866;28;20027;-57
2022/10/24 13:28:22;;;;;;;8.63;2.97;;;;;;;;;;5079434;28;20089;-58
2022/10/24 13:30:48;;;;;;;13.65;3.25;;;;;;;;;;5075979;28;20051;-57
2022/10/24 13:33:29;;;;;;;10.05;2.35;;;;;;;;;;5078133;28;20483;-56
2022/10/24 13:36:21;;;;;;;14.00;4.68;;;;;;;;;;5077343;28;20024;-56
2022/10/24 13:38:53;;;;;;;8.30;2.53;;;;;;;;;;5078273;28;20521;-57
2022/10/24 13:41:41;;;;;;;9.55;2.42;;;;;;;;;;5083705;28;20020;-55
2022/10/24 13:44:09;;;;;;;8.02;2.58;;;;;;;;;;5070448;28;20037;-55
2022/10/24 13:46:36;;;;;;;13.57;2.10;;;;;;;;;;5074186;28;20013;-56
2022/10/24 13:49:01;;;;;;;9.95;2.40;;;;;;;;;;5076331;28;20060;-56
2022/10/24 13:51:33;;;;;;;14.05;2.45;;;;;;;;;;5079544;28;20113;-55
2022/10/24 13:53:59;;;;;;;16.08;5.13;;;;;;;;;;5073848;28;20531;-55
2022/10/24 13:56:25;;;;;;;10.43;3.30;;;;;;;;;;5074741;28;20108;-56
2022/10/24 13:58:50;;;;;;;11.60;2.30;;;;;;;;;;5076719;28;20056;-56
2022/10/24 14:01:19;;;;;;;9.90;2.05;;;;;;;;;;5079787;28;20028;-56
2022/10/24 14:03:44;;;;;;;15.63;2.88;;;;;;;;;;5079465;28;20032;-55
2022/10/24 14:06:09;;;;;;;11.82;2.80;;;;;;;;;;5070663;28;20052;-55
2022/10/24 14:08:42;;;;;;;10.93;2.78;;;;;;;;;;5091156;27;20077;-56
2022/10/24 14:11:07;;;;;;;10.18;2.90;;;;;;;;;;5085328;28;20031;-55
2022/10/24 14:13:35;;;;;;;12.07;2.50;;;;;;;;;;5080411;28;20028;-54
2022/10/24 14:16:01;;;;;;;17.58;2.78;;;;;;;;;;5079794;28;20027;-55
2022/10/24 14:18:26;;;;;;;13.10;4.57;;;;;;;;;;5081959;28;20050;-54
2022/10/24 14:20:52;;;;;;;11.35;2.70;;;;;;;;;;5080059;28;20016;-56
2022/10/24 14:23:20;;;;;;;11.23;2.60;;;;;;;;;;5081068;28;20355;-55
2022/10/24 14:25:46;;;;;;;6.72;2.00;;;;;;;;;;5082166;28;20035;-55
2022/10/24 14:28:14;;;;;;;12.55;3.03;;;;;;;;;;5082099;28;20023;-54
2022/10/24 14:30:40;;;;;;;7.40;2.00;;;;;;;;;;5076836;28;20020;-54
2022/10/24 14:33:18;;;;;;;15.60;3.15;;;;;;;;;;5079191;28;20023;-55
2022/10/24 14:35:43;;;;;;;8.77;2.38;;;;;;;;;;5081385;28;20094;-57
2022/10/24 14:38:11;;;;;;;8.57;2.47;;;;;;;;;;5074474;28;20215;-54
2022/10/24 14:40:36;;;;;;;12.05;2.40;;;;;;;;;;5083816;28;20417;-55